Time;durP1;ratioP1;P1;durP2;ratioP2;P2;SDS_P1;SDS_P2;PMS_P1;PMS_P2;Temp;Humidity;BMP_temperature;BMP_pressure;BME280_temperature;BME280_humidity;BME280_pressure;Samples;Min_cycle;Max_cycle;Signal;HPM_P1;HPM_P2
2023/02/20 00:01:20;;;;;;;10.77;7.33;;;2.30;99.90;;;;;;4952059;28;20460;-82
2023/02/20 00:03:46;;;;;;;10.97;7.57;;;2.20;99.90;;;;;;4952266;29;20929;-81
2023/02/20 00:06:12;;;;;;;12.93;7.60;;;2.10;99.90;;;;;;4952177;28;20446;-83
2023/02/20 00:08:41;;;;;;;10.43;6.80;;;2.10;99.90;;;;;;4956538;28;20393;-82
2023/02/20 00:11:07;;;;;;;10.65;7.30;;;2.10;99.90;;;;;;4962416;28;20385;-81
2023/02/20 00:13:32;;;;;;;10.20;7.57;;;2.00;99.90;;;;;;4936940;28;20902;-82
2023/02/20 00:15:58;;;;;;;11.45;7.45;;;2.00;99.90;;;;;;4946160;28;20414;-82
2023/02/20 00:18:24;;;;;;;10.67;7.50;;;2.00;99.90;;;;;;4932276;28;20415;-83
2023/02/20 00:20:49;;;;;;;9.63;7.70;;;2.00;99.90;;;;;;4927899;28;20531;-82
2023/02/20 00:23:15;;;;;;;10.13;8.37;;;2.10;99.90;;;;;;4928360;28;20424;-82
2023/02/20 00:25:41;;;;;;;10.60;8.20;;;1.90;99.90;;;;;;4926666;28;20514;-82
2023/02/20 00:28:07;;;;;;;10.73;8.10;;;1.90;99.90;;;;;;4937637;28;20812;-82
2023/02/20 00:30:33;;;;;;;15.25;8.18;;;1.90;99.90;;;;;;4927256;28;21033;-81
2023/02/20 00:32:58;;;;;;;13.25;8.27;;;1.90;99.90;;;;;;4929093;28;20887;-81
2023/02/20 00:35:26;;;;;;;13.93;8.95;;;1.90;99.90;;;;;;4932586;28;20420;-82
2023/02/20 00:37:52;;;;;;;12.02;8.52;;;1.90;99.90;;;;;;4927390;28;20412;-82
2023/02/20 00:40:20;;;;;;;15.18;8.60;;;1.80;99.90;;;;;;4928023;28;20409;-83
2023/02/20 00:42:45;;;;;;;12.98;8.75;;;1.80;99.90;;;;;;4932547;29;20871;-82
2023/02/20 00:45:12;;;;;;;10.70;9.10;;;1.80;99.90;;;;;;4953906;29;20480;-83
2023/02/20 00:47:38;;;;;;;12.82;8.70;;;1.80;99.90;;;;;;4937264;29;20816;-81
2023/02/20 00:50:06;;;;;;;12.48;8.93;;;1.80;99.90;;;;;;4936111;29;20392;-82
2023/02/20 00:52:32;;;;;;;13.32;9.18;;;1.80;99.90;;;;;;4951854;29;20507;-82
2023/02/20 00:54:58;;;;;;;12.30;9.88;;;1.90;99.90;;;;;;4954016;29;20443;-81
2023/02/20 00:57:24;;;;;;;13.45;9.98;;;1.80;99.90;;;;;;4948502;28;20905;-82
2023/02/20 00:59:50;;;;;;;13.80;9.75;;;2.00;99.90;;;;;;4925374;28;20405;-83
2023/02/20 01:02:16;;;;;;;13.50;9.50;;;2.00;99.90;;;;;;4908082;28;20456;-83
2023/02/20 01:04:42;;;;;;;11.43;8.60;;;2.00;99.90;;;;;;4909779;28;20776;-84
2023/02/20 01:07:08;;;;;;;13.20;9.05;;;2.10;99.90;;;;;;4907235;28;20416;-81
2023/02/20 01:09:36;;;;;;;12.13;8.90;;;2.10;99.90;;;;;;4927037;28;20407;-81
2023/02/20 01:12:02;;;;;;;12.57;9.60;;;2.10;99.90;;;;;;4915579;28;20966;-83
2023/02/20 01:14:27;;;;;;;11.38;8.50;;;2.10;99.90;;;;;;4939234;28;20415;-82
2023/02/20 01:16:53;;;;;;;11.20;9.07;;;2.20;99.90;;;;;;4925896;29;20820;-81
2023/02/20 01:19:21;;;;;;;13.27;9.10;;;2.30;99.90;;;;;;4942468;28;20431;-81
2023/02/20 01:21:49;;;;;;;12.50;8.75;;;2.30;99.90;;;;;;4927085;28;20392;-82
2023/02/20 01:24:16;;;;;;;11.87;8.90;;;2.30;99.90;;;;;;4926038;28;20494;-82
2023/02/20 01:26:44;;;;;;;11.73;9.00;;;2.40;99.90;;;;;;4924804;28;20415;-83
2023/02/20 01:29:09;;;;;;;12.63;9.23;;;2.40;99.90;;;;;;4938005;28;20411;-81
2023/02/20 01:31:35;;;;;;;12.93;9.20;;;2.40;99.90;;;;;;4947087;28;20491;-81
2023/02/20 01:34:01;;;;;;;13.73;9.30;;;2.50;99.90;;;;;;4928316;28;20443;-82
2023/02/20 01:36:27;;;;;;;13.45;9.25;;;2.50;99.90;;;;;;4938885;28;20750;-82
2023/02/20 01:38:53;;;;;;;10.93;9.30;;;2.50;99.90;;;;;;4928854;28;20404;-83
2023/02/20 01:41:19;;;;;;;12.27;9.68;;;2.60;99.90;;;;;;4930498;28;20403;-84
2023/02/20 01:43:45;;;;;;;14.15;9.75;;;2.70;99.90;;;;;;4934234;29;20408;-82
2023/02/20 01:46:26;;;;;;;13.07;9.88;;;2.70;99.90;;;;;;4938460;29;20824;-83
2023/02/20 01:49:04;;;;;;;13.15;10.48;;;2.80;99.90;;;;;;4944715;28;21681;-80
2023/02/20 01:51:34;;;;;;;15.23;9.77;;;2.80;99.90;;;;;;4941595;28;20559;-83
2023/02/20 01:54:00;;;;;;;14.45;9.95;;;2.90;99.90;;;;;;4938434;28;20456;-84
2023/02/20 01:56:26;;;;;;;13.25;9.80;;;3.00;99.90;;;;;;4927564;28;20528;-84
2023/02/20 01:58:53;;;;;;;13.32;10.23;;;3.00;99.90;;;;;;4930013;28;20435;-82
2023/02/20 02:01:18;;;;;;;13.23;10.18;;;2.90;99.90;;;;;;4929308;28;20408;-82
2023/02/20 02:03:52;;;;;;;12.43;9.55;;;3.00;99.90;;;;;;4910099;28;20878;-84
2023/02/20 02:06:17;;;;;;;12.43;9.90;;;3.10;99.90;;;;;;4927335;28;20411;-84
2023/02/20 02:08:44;;;;;;;12.33;10.33;;;3.10;99.90;;;;;;4926764;28;21035;-82
2023/02/20 02:11:14;;;;;;;14.17;9.80;;;3.10;99.90;;;;;;4928209;28;20396;-81
2023/02/20 02:13:42;;;;;;;15.27;9.82;;;3.20;99.90;;;;;;4939983;28;20427;-80
2023/02/20 02:16:53;;;;;;;11.03;9.80;;;3.10;99.90;;;;;;4922537;28;20485;-81
2023/02/20 02:19:45;;;;;;;11.68;9.40;;;3.20;99.90;;;;;;4854597;29;20429;-83
2023/02/20 02:22:25;;;;;;;12.43;9.73;;;3.20;99.90;;;;;;4862824;29;20425;-82
2023/02/20 02:25:17;;;;;;;12.20;9.75;;;3.20;99.90;;;;;;4930750;28;20396;-81
2023/02/20 02:28:09;;;;;;;13.00;9.82;;;3.30;99.90;;;;;;4952031;28;20426;-84
2023/02/20 02:31:09;;;;;;;13.90;9.60;;;3.40;99.90;;;;;;4951294;28;21078;-83
2023/02/20 02:33:38;;;;;;;12.48;9.57;;;3.30;99.90;;;;;;4954079;29;20415;-83
2023/02/20 02:36:24;;;;;;;12.10;9.57;;;3.40;99.90;;;;;;4951552;28;20411;-82
2023/02/20 02:38:52;;;;;;;13.23;10.13;;;3.40;99.90;;;;;;4953399;29;20448;-83
2023/02/20 02:41:51;;;;;;;14.40;10.57;;;3.50;99.90;;;;;;4949576;28;20969;-82
2023/02/20 02:44:40;;;;;;;12.70;9.87;;;3.50;99.90;;;;;;4951281;28;20440;-83
2023/02/20 02:47:21;;;;;;;13.30;9.98;;;3.50;99.90;;;;;;4950440;28;20499;-82
2023/02/20 02:50:04;;;;;;;12.75;10.25;;;3.60;99.90;;;;;;4952860;28;20404;-81
2023/02/20 02:52:47;;;;;;;13.40;10.63;;;3.60;99.90;;;;;;4949879;28;20511;-82
2023/02/20 02:55:17;;;;;;;13.80;10.57;;;3.60;99.90;;;;;;4940795;28;20416;-83
2023/02/20 02:57:42;;;;;;;16.05;10.60;;;3.60;99.90;;;;;;4950028;28;20459;-83
2023/02/20 03:00:27;;;;;;;15.77;10.40;;;3.60;99.90;;;;;;4951902;28;21038;-83
2023/02/20 03:03:33;;;;;;;12.88;10.38;;;3.60;99.90;;;;;;4952715;28;20448;-82
2023/02/20 03:06:04;;;;;;;15.00;11.27;;;3.60;99.90;;;;;;4893820;29;20409;-82
2023/02/20 03:08:33;;;;;;;14.75;10.90;;;3.60;99.90;;;;;;5242093;23;20453;-79
2023/02/20 03:11:20;;;;;;;13.65;11.05;;;3.60;99.90;;;;;;5011871;28;20379;-81
2023/02/20 03:17:04;;;;;;;15.85;11.38;;;3.70;99.90;;;;;;5010110;28;20433;-82
2023/02/20 03:19:39;;;;;;;16.83;11.50;;;3.70;99.90;;;;;;4995244;28;20418;-80
2023/02/20 03:22:18;;;;;;;15.57;11.48;;;3.70;99.90;;;;;;5010547;28;20399;-83
2023/02/20 03:24:56;;;;;;;12.80;10.65;;;3.70;99.90;;;;;;5013371;28;20375;-81
2023/02/20 03:27:30;;;;;;;14.63;11.55;;;3.80;99.90;;;;;;5012662;28;20411;-83
2023/02/20 03:29:58;;;;;;;15.27;11.82;;;3.80;99.90;;;;;;5013614;28;20407;-81
2023/02/20 03:43:32;;;;;;;16.90;12.45;;;4.10;99.90;;;;;;5011275;28;20513;-80
2023/02/20 03:46:01;;;;;;;17.20;12.80;;;4.10;99.90;;;;;;5020899;28;20386;-83
2023/02/20 03:48:36;;;;;;;15.93;12.55;;;4.20;99.90;;;;;;5011152;28;20382;-82
2023/02/20 03:51:11;;;;;;;15.25;12.60;;;4.30;99.90;;;;;;5028913;28;20444;-80
2023/02/20 03:53:39;;;;;;;15.52;12.18;;;4.50;99.90;;;;;;5032043;28;20412;-82
2023/02/20 03:56:09;;;;;;;16.17;12.27;;;4.50;99.90;;;;;;5031913;28;20409;-81
2023/02/20 03:58:39;;;;;;;15.35;12.10;;;4.40;99.90;;;;;;5031428;28;20444;-83
2023/02/20 04:01:08;;;;;;;16.27;12.90;;;4.50;99.90;;;;;;5029894;28;20937;-82
2023/02/20 04:03:39;;;;;;;15.00;12.55;;;4.40;99.90;;;;;;4996102;28;20489;-82
2023/02/20 04:06:07;;;;;;;16.50;12.85;;;4.60;99.90;;;;;;5011958;28;20387;-82
2023/02/20 04:09:17;;;;;;;14.68;11.93;;;4.60;99.90;;;;;;5003856;28;20410;-81
2023/02/20 04:11:50;;;;;;;16.05;12.73;;;4.50;99.90;;;;;;4999383;28;20475;-82
2023/02/20 04:14:20;;;;;;;14.85;12.00;;;4.50;99.90;;;;;;4990221;28;20450;-80
2023/02/20 04:16:50;;;;;;;14.80;12.75;;;4.60;99.90;;;;;;5005399;28;20408;-82
2023/02/20 04:19:16;;;;;;;15.52;13.27;;;4.50;99.90;;;;;;5008534;28;21044;-82
2023/02/20 04:21:47;;;;;;;15.63;13.30;;;4.50;99.90;;;;;;5009431;28;20453;-82
2023/02/20 04:24:19;;;;;;;15.77;13.33;;;4.50;99.90;;;;;;5007811;28;20474;-81
2023/02/20 04:26:45;;;;;;;15.93;13.00;;;4.60;99.90;;;;;;5006214;28;20403;-83
2023/02/20 04:29:11;;;;;;;15.43;13.15;;;4.50;99.90;;;;;;5007209;28;20800;-81
2023/02/20 04:31:37;;;;;;;15.27;12.93;;;4.60;99.90;;;;;;5008533;28;20406;-81
2023/02/20 04:34:03;;;;;;;16.00;12.93;;;4.50;99.90;;;;;;5009130;28;20407;-81
2023/02/20 04:36:28;;;;;;;17.90;14.07;;;4.60;99.90;;;;;;5007147;28;20746;-80
2023/02/20 04:38:54;;;;;;;15.93;13.70;;;4.60;99.90;;;;;;5006501;28;20465;-81
2023/02/20 04:41:19;;;;;;;14.27;12.68;;;4.70;99.90;;;;;;5008023;28;20383;-82
2023/02/20 04:43:46;;;;;;;16.33;13.38;;;4.80;99.90;;;;;;4993390;28;20493;-81
2023/02/20 04:46:12;;;;;;;15.60;13.17;;;4.70;99.90;;;;;;5005563;28;20414;-81
2023/02/20 04:48:38;;;;;;;16.50;12.77;;;4.80;99.90;;;;;;5007198;28;20422;-81
2023/02/20 04:51:04;;;;;;;15.77;13.43;;;4.80;99.90;;;;;;5007413;28;20897;-83
2023/02/20 04:53:30;;;;;;;14.88;13.27;;;4.80;99.90;;;;;;5007672;28;20402;-83
2023/02/20 04:55:55;;;;;;;15.02;13.43;;;4.80;99.90;;;;;;5008368;28;20402;-82
2023/02/20 04:58:21;;;;;;;14.50;12.53;;;4.80;99.90;;;;;;5008406;28;20402;-82
2023/02/20 05:00:47;;;;;;;15.03;12.57;;;4.90;99.90;;;;;;5009337;28;20489;-80
2023/02/20 05:03:13;;;;;;;15.45;12.57;;;5.00;99.90;;;;;;5009740;28;20525;-81
2023/02/20 05:05:39;;;;;;;14.20;12.47;;;5.00;99.90;;;;;;5012337;28;20453;-80
2023/02/20 05:08:06;;;;;;;14.83;12.50;;;5.00;99.90;;;;;;4998746;28;20890;-81
2023/02/20 05:10:34;;;;;;;14.57;12.80;;;5.00;99.90;;;;;;5009928;28;20710;-81
2023/02/20 05:13:00;;;;;;;14.60;12.47;;;5.00;99.90;;;;;;5014250;28;20470;-80
2023/02/20 05:15:29;;;;;;;16.92;13.75;;;5.00;99.90;;;;;;5013383;28;20414;-81
2023/02/20 05:17:56;;;;;;;15.32;13.13;;;5.10;99.90;;;;;;5013030;28;20395;-80
2023/02/20 05:22:17;;;;;;;15.50;13.48;;;5.10;99.90;;;;;;5011338;28;20485;-80
2023/02/20 05:23:07;;;;;;;15.10;13.48;;;5.10;99.90;;;;;;5012896;28;20406;-81
2023/02/20 05:25:32;;;;;;;15.80;13.70;;;5.20;99.90;;;;;;5012982;28;20399;-81
2023/02/20 05:27:58;;;;;;;16.57;13.60;;;5.10;99.90;;;;;;5010968;28;20398;-80
2023/02/20 05:30:24;;;;;;;15.88;13.38;;;5.10;99.90;;;;;;5018183;28;20863;-81
2023/02/20 05:32:49;;;;;;;16.13;14.30;;;5.20;99.90;;;;;;5018421;28;20401;-81
2023/02/20 05:35:15;;;;;;;17.10;15.10;;;5.10;99.90;;;;;;5021802;28;21768;-83
2023/02/20 05:37:41;;;;;;;16.27;14.57;;;5.00;99.90;;;;;;5021213;28;21120;-83
2023/02/20 05:40:06;;;;;;;16.77;14.98;;;5.00;99.90;;;;;;5015578;28;20415;-81
2023/02/20 05:42:32;;;;;;;18.73;15.43;;;5.00;99.90;;;;;;5014586;28;20391;-81
2023/02/20 05:45:01;;;;;;;20.00;16.05;;;5.10;99.90;;;;;;5018265;28;20822;-81
2023/02/20 05:47:26;;;;;;;20.45;16.02;;;5.00;99.90;;;;;;5022140;28;20388;-82
2023/02/20 05:49:52;;;;;;;18.17;16.00;;;5.00;99.90;;;;;;5018786;28;20395;-80
2023/02/20 05:52:18;;;;;;;18.02;16.05;;;5.00;99.90;;;;;;5022300;28;20408;-82
2023/02/20 05:54:45;;;;;;;17.77;15.48;;;5.00;99.90;;;;;;5027816;28;20690;-81
2023/02/20 05:57:11;;;;;;;17.42;15.55;;;5.00;99.90;;;;;;5031400;28;20479;-81
2023/02/20 05:59:37;;;;;;;17.45;15.63;;;5.10;99.90;;;;;;5017506;28;20900;-82
2023/02/20 06:02:03;;;;;;;18.13;15.77;;;5.10;99.90;;;;;;5011473;28;20375;-81
2023/02/20 06:04:29;;;;;;;17.15;15.20;;;5.10;99.90;;;;;;5011918;28;20896;-81
2023/02/20 06:06:55;;;;;;;17.92;15.27;;;5.10;99.90;;;;;;5010538;28;20423;-81
2023/02/20 06:09:20;;;;;;;18.20;15.80;;;5.10;99.90;;;;;;5011275;28;20383;-81
2023/02/20 06:11:53;;;;;;;16.50;14.53;;;5.20;99.90;;;;;;5010734;28;20398;-80
2023/02/20 06:14:20;;;;;;;16.83;15.02;;;5.10;99.90;;;;;;4999940;28;20423;-81
2023/02/20 06:16:46;;;;;;;15.95;14.27;;;5.10;99.90;;;;;;5008466;28;20407;-82
2023/02/20 06:19:21;;;;;;;15.63;14.00;;;5.20;99.90;;;;;;5008341;28;20409;-82
2023/02/20 06:21:47;;;;;;;16.70;13.55;;;5.20;99.90;;;;;;5008011;28;20409;-82
2023/02/20 06:24:13;;;;;;;15.82;13.93;;;5.30;99.90;;;;;;5011393;28;20406;-81
2023/02/20 06:26:42;;;;;;;16.83;14.15;;;5.30;99.90;;;;;;5009682;28;20407;-81
2023/02/20 06:29:08;;;;;;;16.80;14.00;;;5.20;99.90;;;;;;5008076;28;20507;-80
2023/02/20 06:31:34;;;;;;;16.30;14.20;;;5.30;99.90;;;;;;5008987;28;20893;-83
2023/02/20 06:33:59;;;;;;;16.17;14.23;;;5.30;99.90;;;;;;5009474;28;20583;-80
2023/02/20 06:36:33;;;;;;;16.58;14.82;;;5.30;99.90;;;;;;5008268;28;20406;-80
2023/02/20 06:38:59;;;;;;;14.95;13.45;;;5.40;99.90;;;;;;5008824;28;20494;-82
2023/02/20 06:41:25;;;;;;;15.77;14.07;;;5.50;99.90;;;;;;5010072;28;20406;-80
2023/02/20 06:43:51;;;;;;;16.50;14.70;;;5.50;99.90;;;;;;5010564;28;20790;-81
2023/02/20 06:46:17;;;;;;;16.45;14.65;;;5.50;99.90;;;;;;5007023;28;20409;-81
2023/02/20 06:48:44;;;;;;;16.25;14.55;;;5.50;99.90;;;;;;5010157;28;20423;-83
2023/02/20 06:51:10;;;;;;;17.17;15.38;;;5.50;99.90;;;;;;5011037;28;20402;-82
2023/02/20 06:53:37;;;;;;;17.83;16.03;;;5.50;99.90;;;;;;5008150;28;20415;-82
2023/02/20 06:56:07;;;;;;;18.10;16.20;;;5.60;99.90;;;;;;5010653;28;20402;-82
2023/02/20 06:58:32;;;;;;;18.40;16.25;;;5.60;99.90;;;;;;5010133;28;20447;-80
2023/02/20 07:00:58;;;;;;;19.25;17.25;;;5.60;99.90;;;;;;5012758;28;20397;-80
2023/02/20 07:03:24;;;;;;;19.58;17.58;;;5.70;99.90;;;;;;5010185;28;20410;-82
2023/02/20 07:05:50;;;;;;;20.08;17.88;;;5.80;99.90;;;;;;5010462;28;20436;-82
2023/02/20 07:08:15;;;;;;;20.47;18.37;;;5.70;99.90;;;;;;5009347;28;20411;-81
2023/02/20 07:10:41;;;;;;;21.63;19.23;;;5.80;99.90;;;;;;5014335;28;20465;-82
2023/02/20 07:13:06;;;;;;;21.25;18.95;;;5.80;99.90;;;;;;5030237;28;20974;-81
2023/02/20 07:15:32;;;;;;;21.75;19.45;;;5.80;99.90;;;;;;5018928;28;20491;-80
2023/02/20 07:17:58;;;;;;;21.40;19.17;;;5.90;99.90;;;;;;5013629;28;20407;-82
2023/02/20 07:20:23;;;;;;;23.47;21.07;;;5.90;99.90;;;;;;5029326;28;20409;-81
2023/02/20 07:22:53;;;;;;;23.25;20.75;;;5.90;99.90;;;;;;5021158;28;20390;-81
2023/02/20 07:25:19;;;;;;;23.88;21.27;;;6.00;99.90;;;;;;5010394;28;20395;-81
2023/02/20 07:27:45;;;;;;;22.98;20.45;;;6.10;99.90;;;;;;5009071;28;20387;-80
2023/02/20 07:30:11;;;;;;;23.33;20.83;;;6.10;99.90;;;;;;5005896;28;20457;-81
2023/02/20 07:32:37;;;;;;;23.63;21.20;;;6.10;99.90;;;;;;5009070;28;20403;-83
2023/02/20 07:35:06;;;;;;;23.30;20.77;;;6.10;99.90;;;;;;5006856;28;20411;-83
2023/02/20 07:37:32;;;;;;;22.23;19.90;;;6.10;99.90;;;;;;5009031;28;20407;-82
2023/02/20 07:39:58;;;;;;;21.93;19.63;;;6.10;99.90;;;;;;5005499;28;20407;-82
2023/02/20 07:42:24;;;;;;;20.67;18.57;;;6.20;99.90;;;;;;5006353;28;20403;-81
2023/02/20 07:44:49;;;;;;;20.93;18.70;;;6.20;99.90;;;;;;5011084;28;20711;-81
2023/02/20 07:47:15;;;;;;;21.27;19.07;;;6.20;99.90;;;;;;5008931;28;20386;-81
2023/02/20 07:49:41;;;;;;;22.35;18.75;;;6.20;99.90;;;;;;5026180;28;20381;-81
2023/02/20 07:52:06;;;;;;;21.27;18.98;;;6.20;99.90;;;;;;5028804;28;20385;-80
2023/02/20 07:54:32;;;;;;;18.40;16.50;;;6.20;99.90;;;;;;5029325;28;20409;-80
2023/02/20 07:56:58;;;;;;;18.93;17.03;;;6.20;99.90;;;;;;5029088;28;20400;-80
2023/02/20 07:59:24;;;;;;;18.47;16.57;;;6.30;99.90;;;;;;5027303;28;20484;-80
2023/02/20 08:01:49;;;;;;;18.48;16.50;;;6.30;99.90;;;;;;5012310;28;20586;-79
2023/02/20 08:04:15;;;;;;;18.05;16.25;;;6.30;99.90;;;;;;5008988;28;20394;-80
2023/02/20 08:06:41;;;;;;;18.77;15.48;;;6.30;99.90;;;;;;5008745;28;20378;-81
2023/02/20 08:09:07;;;;;;;17.33;15.60;;;6.30;99.90;;;;;;5008355;28;20391;-81
2023/02/20 08:11:34;;;;;;;16.90;15.10;;;6.30;99.90;;;;;;5007985;28;20798;-80
2023/02/20 08:14:01;;;;;;;18.00;16.20;;;6.40;99.90;;;;;;5006567;28;20450;-80
2023/02/20 08:16:27;;;;;;;17.08;15.30;;;6.40;99.90;;;;;;5007113;28;20490;-80
2023/02/20 08:18:52;;;;;;;16.67;14.87;;;6.40;99.90;;;;;;5010481;28;20391;-77
2023/02/20 08:21:19;;;;;;;16.23;13.68;;;6.40;99.90;;;;;;5006083;28;20750;-76
2023/02/20 08:23:45;;;;;;;15.48;13.90;;;6.50;99.90;;;;;;5009904;28;20379;-81
2023/02/20 08:26:10;;;;;;;15.75;13.68;;;6.40;99.90;;;;;;5005209;28;20457;-81
2023/02/20 08:28:36;;;;;;;17.08;14.55;;;6.40;99.90;;;;;;5009207;28;20797;-81
2023/02/20 08:31:02;;;;;;;15.63;14.02;;;6.50;99.90;;;;;;5028966;28;20966;-81
2023/02/20 08:33:28;;;;;;;16.35;13.98;;;6.50;99.90;;;;;;5021606;28;20538;-81
2023/02/20 08:35:56;;;;;;;15.52;13.88;;;6.60;99.90;;;;;;5009554;28;20446;-82
2023/02/20 08:38:33;;;;;;;16.05;13.40;;;6.60;99.90;;;;;;5010544;28;20785;-81
2023/02/20 08:41:03;;;;;;;15.88;13.48;;;6.50;99.90;;;;;;5010304;28;20411;-81
2023/02/20 08:43:30;;;;;;;19.50;13.48;;;6.70;99.90;;;;;;5010966;28;20425;-81
2023/02/20 08:45:55;;;;;;;14.18;12.68;;;6.60;99.90;;;;;;5009698;28;20410;-80
2023/02/20 08:48:21;;;;;;;15.43;13.50;;;6.80;99.90;;;;;;5009909;28;20382;-81
2023/02/20 08:50:47;;;;;;;15.23;12.13;;;6.80;99.90;;;;;;5007046;28;20461;-82
2023/02/20 08:53:14;;;;;;;13.97;12.40;;;6.90;99.90;;;;;;4993330;28;20975;-82
2023/02/20 08:55:40;;;;;;;14.20;12.70;;;6.90;99.90;;;;;;5000621;28;20755;-82
2023/02/20 08:58:06;;;;;;;14.38;12.52;;;7.00;99.90;;;;;;5023768;28;20390;-82
2023/02/20 09:00:32;;;;;;;13.05;11.75;;;7.00;99.90;;;;;;5024591;28;20795;-82
2023/02/20 09:02:58;;;;;;;13.13;11.32;;;7.10;99.90;;;;;;5026478;28;20393;-81
2023/02/20 09:05:25;;;;;;;13.23;11.67;;;7.20;99.90;;;;;;5019454;28;20430;-82
2023/02/20 09:07:51;;;;;;;13.02;11.23;;;7.20;99.90;;;;;;5011078;28;20481;-81
2023/02/20 09:10:19;;;;;;;12.07;10.75;;;7.20;99.90;;;;;;5018074;28;20988;-81
2023/02/20 09:12:46;;;;;;;13.93;11.02;;;7.30;99.90;;;;;;5024149;28;20396;-81
2023/02/20 09:15:16;;;;;;;13.93;11.35;;;7.30;99.90;;;;;;5031017;28;20412;-82
2023/02/20 09:17:43;;;;;;;12.88;10.43;;;7.40;99.90;;;;;;5030720;28;20417;-83
2023/02/20 09:20:09;;;;;;;11.35;10.15;;;7.40;99.90;;;;;;5030447;28;20449;-82
2023/02/20 09:22:35;;;;;;;11.68;9.70;;;7.50;99.90;;;;;;5028701;28;20387;-82
2023/02/20 09:25:01;;;;;;;11.07;9.90;;;7.60;99.90;;;;;;4994226;28;20407;-83
2023/02/20 09:27:27;;;;;;;12.15;9.93;;;7.70;99.90;;;;;;5007891;28;20414;-83
2023/02/20 09:29:52;;;;;;;11.20;9.50;;;7.70;99.90;;;;;;5012123;28;20422;-81
2023/02/20 09:32:18;;;;;;;11.33;9.47;;;7.80;99.90;;;;;;5024105;28;20408;-81
2023/02/20 09:34:44;;;;;;;10.57;9.15;;;7.90;99.90;;;;;;5013273;28;20561;-82
2023/02/20 09:37:10;;;;;;;11.50;9.18;;;8.00;99.90;;;;;;5009389;28;20747;-82
2023/02/20 09:39:36;;;;;;;12.02;9.45;;;8.00;99.90;;;;;;4998348;28;20436;-81
2023/02/20 09:42:14;;;;;;;9.63;8.63;;;8.10;99.90;;;;;;5014700;28;20383;-82
2023/02/20 09:45:01;;;;;;;12.07;9.15;;;8.20;99.90;;;;;;4990854;28;20412;-82
2023/02/20 09:47:35;;;;;;;10.43;9.17;;;8.30;99.90;;;;;;5018372;28;20390;-81
2023/02/20 09:50:06;;;;;;;11.57;9.00;;;8.30;99.90;;;;;;5012570;28;20473;-82
2023/02/20 09:52:38;;;;;;;11.95;9.13;;;8.40;99.90;;;;;;5009483;28;20477;-82
2023/02/20 09:55:11;;;;;;;11.95;9.07;;;8.50;99.90;;;;;;5009967;28;20411;-81
2023/02/20 09:57:39;;;;;;;10.18;8.60;;;8.50;99.90;;;;;;5008581;28;20391;-81
2023/02/20 10:00:19;;;;;;;11.43;9.40;;;8.50;99.90;;;;;;5007881;28;20383;-80
2023/02/20 10:03:00;;;;;;;9.25;8.18;;;8.80;99.90;;;;;;5000500;28;20415;-81
2023/02/20 10:05:28;;;;;;;10.43;7.82;;;8.90;99.90;;;;;;5009294;28;20399;-81
2023/02/20 10:07:54;;;;;;;9.87;7.40;;;8.90;99.90;;;;;;5008616;28;20407;-81
2023/02/20 10:10:38;;;;;;;9.88;7.88;;;8.90;99.90;;;;;;5010523;28;20402;-82
2023/02/20 10:13:10;;;;;;;10.57;6.90;;;8.80;99.90;;;;;;5010804;28;20903;-81
2023/02/20 10:16:01;;;;;;;10.90;7.30;;;8.90;99.90;;;;;;5009634;28;20403;-80
2023/02/20 10:19:05;;;;;;;9.75;7.03;;;9.00;99.90;;;;;;5006981;28;20399;-81
2023/02/20 10:21:44;;;;;;;9.10;6.20;;;9.10;99.90;;;;;;5009448;28;20401;-81
2023/02/20 10:24:31;;;;;;;10.68;6.72;;;9.10;99.90;;;;;;5010971;28;20371;-81
2023/02/20 10:27:24;;;;;;;7.80;5.78;;;9.20;99.90;;;;;;5007101;28;20396;-82
2023/02/20 10:29:52;;;;;;;8.37;6.10;;;9.20;99.90;;;;;;5012013;28;20531;-82
2023/02/20 10:32:25;;;;;;;9.13;6.43;;;9.10;99.90;;;;;;5010809;28;20406;-82
2023/02/20 10:35:09;;;;;;;7.93;6.37;;;9.20;99.90;;;;;;5009603;28;20446;-82
2023/02/20 10:37:42;;;;;;;7.60;5.77;;;9.30;99.90;;;;;;5007539;28;20959;-83
2023/02/20 10:40:17;;;;;;;7.80;5.85;;;9.30;99.90;;;;;;5009611;28;20383;-80
2023/02/20 10:43:02;;;;;;;8.35;6.65;;;9.40;99.90;;;;;;5009109;28;20960;-81
2023/02/20 10:45:49;;;;;;;10.63;7.18;;;9.40;99.90;;;;;;5007207;28;20395;-82
2023/02/20 10:48:16;;;;;;;10.35;7.05;;;9.40;99.90;;;;;;5009125;28;20403;-83
2023/02/20 10:51:07;;;;;;;7.60;6.18;;;9.70;99.90;;;;;;5010816;28;20445;-83
2023/02/20 10:53:36;;;;;;;7.75;6.45;;;9.70;99.90;;;;;;5005192;28;20401;-81
2023/02/20 10:56:21;;;;;;;10.40;6.75;;;9.80;99.90;;;;;;4989780;28;20464;-81
2023/02/20 10:59:12;;;;;;;9.60;7.07;;;9.80;99.90;;;;;;4990298;28;20448;-82
2023/02/20 11:01:39;;;;;;;9.43;7.30;;;9.70;99.90;;;;;;4989294;28;20906;-81
2023/02/20 11:04:42;;;;;;;10.65;7.65;;;9.60;99.90;;;;;;4989496;28;20392;-82
2023/02/20 11:07:12;;;;;;;9.50;7.53;;;9.50;99.90;;;;;;4989259;28;20385;-82
2023/02/20 11:09:40;;;;;;;11.80;8.57;;;9.70;99.90;;;;;;5007859;28;20417;-81
2023/02/20 11:12:06;;;;;;;9.07;8.18;;;9.80;99.90;;;;;;5009572;28;20502;-82
2023/02/20 11:14:42;;;;;;;9.65;7.95;;;9.80;99.90;;;;;;4993280;28;20403;-82
2023/02/20 11:17:14;;;;;;;10.70;8.02;;;9.70;99.90;;;;;;4992428;28;20422;-82
2023/02/20 11:19:48;;;;;;;9.32;8.32;;;9.70;99.90;;;;;;5008398;28;20475;-83
2023/02/20 11:22:17;;;;;;;10.30;8.25;;;9.80;99.90;;;;;;5031148;28;20464;-83
2023/02/20 11:24:44;;;;;;;10.68;8.32;;;9.80;99.90;;;;;;5024252;28;20444;-83
2023/02/20 11:27:17;;;;;;;11.67;8.83;;;9.80;99.90;;;;;;5009477;28;20438;-81
2023/02/20 11:30:15;;;;;;;11.52;8.90;;;9.90;99.90;;;;;;4993024;28;20815;-81
2023/02/20 11:32:42;;;;;;;12.30;8.75;;;9.90;99.90;;;;;;4992850;28;20533;-82
2023/02/20 11:35:17;;;;;;;10.40;8.75;;;9.90;99.90;;;;;;5011991;28;20402;-83
2023/02/20 11:37:48;;;;;;;9.48;8.30;;;9.80;99.90;;;;;;5008453;28;20391;-82
2023/02/20 11:40:24;;;;;;;11.98;8.85;;;10.00;99.90;;;;;;5008582;28;20876;-83
2023/02/20 11:42:50;;;;;;;11.30;9.10;;;10.00;99.90;;;;;;5008165;28;20403;-81
2023/02/20 11:45:23;;;;;;;11.75;9.60;;;9.90;99.90;;;;;;5008716;28;20482;-81
2023/02/20 11:48:10;;;;;;;13.43;10.00;;;9.80;99.90;;;;;;5004823;28;20437;-81
2023/02/20 11:50:43;;;;;;;13.25;10.65;;;9.80;99.90;;;;;;5009602;28;20387;-80
2023/02/20 11:53:31;;;;;;;13.90;10.65;;;9.80;99.90;;;;;;4989640;28;20403;-82
2023/02/20 11:56:16;;;;;;;15.50;11.40;;;9.80;99.90;;;;;;5008617;28;20479;-82
2023/02/20 11:58:44;;;;;;;12.63;10.60;;;9.80;99.90;;;;;;5006198;28;20473;-82
2023/02/20 12:01:30;;;;;;;13.27;11.30;;;9.80;99.90;;;;;;5009586;28;20453;-82
2023/02/20 12:03:58;;;;;;;11.85;10.60;;;9.80;99.90;;;;;;5007471;28;20462;-82
2023/02/20 12:06:35;;;;;;;13.25;11.73;;;9.90;99.90;;;;;;5008778;28;20406;-82
2023/02/20 12:09:09;;;;;;;13.88;11.93;;;9.90;99.90;;;;;;5009568;28;20917;-81
2023/02/20 12:11:34;;;;;;;14.60;11.75;;;9.90;99.90;;;;;;5008228;28;20399;-83
2023/02/20 12:14:00;;;;;;;14.60;12.25;;;9.90;99.90;;;;;;5013068;28;20407;-82
2023/02/20 12:16:49;;;;;;;13.73;12.10;;;10.00;99.90;;;;;;5003473;28;20392;-82
2023/02/20 12:19:16;;;;;;;13.60;12.00;;;10.00;99.90;;;;;;5005346;28;20399;-81
2023/02/20 12:22:13;;;;;;;14.68;12.52;;;10.10;99.90;;;;;;5006741;28;20391;-82
2023/02/20 12:24:58;;;;;;;15.88;13.57;;;10.10;99.90;;;;;;5007276;28;20371;-82
2023/02/20 12:27:41;;;;;;;16.73;14.00;;;9.90;99.90;;;;;;5007249;28;20379;-82
2023/02/20 12:30:22;;;;;;;15.18;13.13;;;10.00;99.90;;;;;;4999670;28;20415;-82
2023/02/20 12:33:28;;;;;;;15.25;13.68;;;9.90;99.90;;;;;;5008339;28;20375;-82
2023/02/20 12:35:58;;;;;;;14.77;12.83;;;9.90;99.90;;;;;;4951851;28;20427;-82
2023/02/20 12:38:46;;;;;;;15.10;13.57;;;9.80;99.90;;;;;;5008578;28;20375;-83
2023/02/20 12:41:25;;;;;;;18.30;14.68;;;9.80;99.90;;;;;;5002080;28;20399;-83
2023/02/20 12:44:28;;;;;;;17.15;15.35;;;9.70;99.90;;;;;;5007397;28;20384;-83
2023/02/20 12:47:00;;;;;;;17.85;15.95;;;9.60;99.90;;;;;;5008094;28;20475;-82
2023/02/20 12:49:33;;;;;;;18.70;16.70;;;9.50;99.90;;;;;;5010213;28;20395;-82
2023/02/20 12:52:14;;;;;;;20.60;16.55;;;9.50;99.90;;;;;;5004624;28;20383;-82
2023/02/20 12:54:59;;;;;;;18.52;16.23;;;9.50;99.90;;;;;;5005353;28;20409;-82
2023/02/20 12:57:43;;;;;;;19.48;16.75;;;9.50;99.90;;;;;;5002436;28;20437;-83
2023/02/20 13:00:28;;;;;;;20.47;18.33;;;9.40;99.90;;;;;;5003274;28;20414;-82
2023/02/20 13:03:23;;;;;;;21.13;18.95;;;9.40;99.90;;;;;;5000653;28;20550;-83
2023/02/20 13:05:50;;;;;;;22.85;19.65;;;9.30;99.90;;;;;;4999339;28;20410;-82
2023/02/20 13:08:27;;;;;;;25.67;21.02;;;9.20;99.90;;;;;;5003600;28;20490;-82
2023/02/20 13:10:59;;;;;;;23.90;20.20;;;9.10;99.90;;;;;;5008378;28;20889;-82
2023/02/20 13:13:48;;;;;;;24.27;20.90;;;9.10;99.90;;;;;;5005230;28;20397;-82
2023/02/20 13:16:23;;;;;;;26.08;21.58;;;9.10;99.90;;;;;;5004829;28;20506;-82